Time;durP1;ratioP1;P1;durP2;ratioP2;P2;SDS_P1;SDS_P2;PMS_P1;PMS_P2;Temp;Humidity;BMP_temperature;BMP_pressure;BME280_temperature;BME280_humidity;BME280_pressure;Samples;Min_cycle;Max_cycle;Signal;HPM_P1;HPM_P2
2023/09/07 00:01:59;;;;;;;6.97;3.28;;;;;;;;;;5104356;28;20086;-64
2023/09/07 00:04:27;;;;;;;5.95;2.83;;;;;;;;;;5103795;28;20055;-63
2023/09/07 00:06:55;;;;;;;5.30;3.03;;;;;;;;;;5102993;27;20052;-64
2023/09/07 00:09:23;;;;;;;3.22;2.70;;;;;;;;;;5094830;28;20059;-63
2023/09/07 00:11:50;;;;;;;4.45;3.20;;;;;;;;;;5112315;27;20036;-64
2023/09/07 00:14:17;;;;;;;6.90;3.38;;;;;;;;;;5093252;28;20084;-64
2023/09/07 00:16:45;;;;;;;3.80;3.00;;;;;;;;;;5109385;27;20047;-64
2023/09/07 00:19:12;;;;;;;3.90;3.00;;;;;;;;;;5112655;27;20522;-64
2023/09/07 00:21:40;;;;;;;5.88;3.03;;;;;;;;;;5104371;27;20055;-64
2023/09/07 00:24:08;;;;;;;5.20;3.47;;;;;;;;;;5109438;28;20539;-63
2023/09/07 00:26:35;;;;;;;4.60;3.05;;;;;;;;;;5105176;28;20070;-63
2023/09/07 00:29:03;;;;;;;4.53;2.75;;;;;;;;;;5107221;27;20058;-64
2023/09/07 00:31:30;;;;;;;4.40;3.20;;;;;;;;;;5113108;28;20071;-63
2023/09/07 00:33:57;;;;;;;6.32;2.85;;;;;;;;;;5109898;27;20055;-64
2023/09/07 00:36:24;;;;;;;6.93;2.92;;;;;;;;;;5106932;27;20043;-63
2023/09/07 00:38:53;;;;;;;4.57;3.15;;;;;;;;;;5109458;27;20048;-63
2023/09/07 00:41:20;;;;;;;4.30;3.05;;;;;;;;;;5113613;27;20077;-64
2023/09/07 00:43:47;;;;;;;3.88;3.00;;;;;;;;;;5107357;28;20070;-63
2023/09/07 00:46:15;;;;;;;3.90;2.97;;;;;;;;;;5108952;27;20040;-63
2023/09/07 00:48:42;;;;;;;3.65;2.80;;;;;;;;;;5110204;27;20133;-63
2023/09/07 00:51:09;;;;;;;5.80;3.00;;;;;;;;;;5103565;27;20040;-64
2023/09/07 00:53:37;;;;;;;3.83;2.88;;;;;;;;;;5104868;28;20060;-64
2023/09/07 00:56:07;;;;;;;4.00;2.90;;;;;;;;;;5108431;28;20048;-64
2023/09/07 00:58:34;;;;;;;4.05;3.20;;;;;;;;;;5106527;28;20044;-65
2023/09/07 01:01:02;;;;;;;3.70;2.60;;;;;;;;;;5108783;28;20075;-63
2023/09/07 01:03:29;;;;;;;4.57;3.40;;;;;;;;;;5105219;27;20047;-64
2023/09/07 01:06:00;;;;;;;4.03;2.97;;;;;;;;;;5102015;28;20582;-63
2023/09/07 01:08:28;;;;;;;3.72;2.90;;;;;;;;;;5100408;27;20055;-66
2023/09/07 01:10:56;;;;;;;4.28;3.17;;;;;;;;;;5105368;27;20044;-63
2023/09/07 01:13:24;;;;;;;4.10;3.10;;;;;;;;;;5105085;27;20056;-64
2023/09/07 01:15:51;;;;;;;3.90;2.90;;;;;;;;;;5109855;27;20062;-64
2023/09/07 01:18:19;;;;;;;4.40;2.83;;;;;;;;;;5110286;28;20043;-63
2023/09/07 01:20:46;;;;;;;4.82;3.13;;;;;;;;;;5105942;28;20380;-66
2023/09/07 01:23:15;;;;;;;6.32;3.00;;;;;;;;;;5107722;27;20546;-64
2023/09/07 01:25:43;;;;;;;3.60;2.63;;;;;;;;;;5108817;27;20117;-64
2023/09/07 01:28:10;;;;;;;5.07;3.13;;;;;;;;;;5100981;28;20039;-64
2023/09/07 01:30:39;;;;;;;4.15;3.22;;;;;;;;;;5104746;27;20051;-63
2023/09/07 01:33:06;;;;;;;3.80;3.03;;;;;;;;;;5106207;27;20051;-63
2023/09/07 01:35:35;;;;;;;6.82;3.30;;;;;;;;;;5108956;27;20047;-64
2023/09/07 01:38:02;;;;;;;6.00;3.30;;;;;;;;;;5106431;27;20044;-63
2023/09/07 01:40:31;;;;;;;7.07;3.10;;;;;;;;;;5101413;28;20044;-64
2023/09/07 01:42:58;;;;;;;5.07;3.15;;;;;;;;;;5107630;27;20059;-64
2023/09/07 01:45:26;;;;;;;7.95;4.05;;;;;;;;;;5107974;28;20059;-63
2023/09/07 01:47:53;;;;;;;6.20;3.22;;;;;;;;;;5107954;27;20044;-63
2023/09/07 01:50:20;;;;;;;6.53;3.40;;;;;;;;;;5107674;27;20043;-64
2023/09/07 01:52:49;;;;;;;6.20;2.95;;;;;;;;;;5105219;27;20047;-63
2023/09/07 01:55:16;;;;;;;4.20;3.05;;;;;;;;;;5099131;28;20047;-63
2023/09/07 01:57:45;;;;;;;7.05;3.25;;;;;;;;;;5110675;27;20059;-63
2023/09/07 02:00:13;;;;;;;4.43;3.42;;;;;;;;;;5081616;28;20058;-64
2023/09/07 02:02:40;;;;;;;5.15;3.25;;;;;;;;;;5107101;27;20058;-63
2023/09/07 02:05:08;;;;;;;4.78;3.30;;;;;;;;;;5106386;27;20052;-64
2023/09/07 02:07:35;;;;;;;4.50;3.08;;;;;;;;;;5088698;27;20100;-63
2023/09/07 02:10:04;;;;;;;7.07;3.30;;;;;;;;;;5107288;27;20463;-63
2023/09/07 02:12:31;;;;;;;5.72;2.97;;;;;;;;;;5118188;27;20398;-63
2023/09/07 02:15:03;;;;;;;4.43;3.15;;;;;;;;;;5106292;27;20093;-64
2023/09/07 02:17:30;;;;;;;8.80;3.38;;;;;;;;;;5096432;28;20040;-63
2023/09/07 02:19:57;;;;;;;5.13;3.05;;;;;;;;;;5106457;28;20055;-65
2023/09/07 02:22:25;;;;;;;4.15;2.88;;;;;;;;;;5103106;28;20048;-64
2023/09/07 02:24:52;;;;;;;4.72;3.40;;;;;;;;;;5103033;28;20059;-66
2023/09/07 02:27:19;;;;;;;5.10;3.55;;;;;;;;;;5108622;27;20047;-63
2023/09/07 02:29:46;;;;;;;6.28;3.33;;;;;;;;;;5108571;28;20048;-63
2023/09/07 02:32:15;;;;;;;4.43;3.40;;;;;;;;;;5111278;27;20070;-64
2023/09/07 02:34:42;;;;;;;9.48;3.10;;;;;;;;;;5104561;27;20054;-63
2023/09/07 02:37:10;;;;;;;5.43;3.35;;;;;;;;;;5108237;28;20119;-63
2023/09/07 02:39:37;;;;;;;6.00;3.40;;;;;;;;;;5103261;28;20127;-63
2023/09/07 02:42:04;;;;;;;4.75;3.70;;;;;;;;;;5100692;28;20059;-64
2023/09/07 02:44:31;;;;;;;6.47;3.35;;;;;;;;;;5108206;27;20079;-63
2023/09/07 02:46:59;;;;;;;5.80;3.40;;;;;;;;;;5101277;27;20055;-64
2023/09/07 02:49:27;;;;;;;4.60;3.83;;;;;;;;;;5097218;28;20052;-63
2023/09/07 02:51:54;;;;;;;8.52;3.30;;;;;;;;;;5107994;27;20052;-65
2023/09/07 02:54:22;;;;;;;6.95;3.65;;;;;;;;;;5098387;28;20064;-64
2023/09/07 02:56:49;;;;;;;4.55;3.67;;;;;;;;;;5081741;28;20056;-64
2023/09/07 02:59:16;;;;;;;7.20;3.58;;;;;;;;;;5102844;28;20455;-63
2023/09/07 03:01:43;;;;;;;3.95;3.35;;;;;;;;;;5107839;27;20039;-63
2023/09/07 03:04:11;;;;;;;8.45;3.38;;;;;;;;;;5116148;27;20070;-63
2023/09/07 03:06:39;;;;;;;5.60;3.53;;;;;;;;;;5103514;27;20052;-64
2023/09/07 03:09:08;;;;;;;5.53;3.80;;;;;;;;;;5108062;28;20055;-64
2023/09/07 03:11:36;;;;;;;7.22;3.55;;;;;;;;;;5102310;28;20089;-64
2023/09/07 03:14:03;;;;;;;4.22;3.30;;;;;;;;;;5084665;28;20060;-63
2023/09/07 03:16:31;;;;;;;6.22;3.22;;;;;;;;;;5106399;28;20051;-64
2023/09/07 03:18:58;;;;;;;5.82;3.50;;;;;;;;;;5105108;27;20039;-63
2023/09/07 03:21:29;;;;;;;5.07;3.55;;;;;;;;;;5109464;27;20047;-64
2023/09/07 03:23:57;;;;;;;9.40;3.30;;;;;;;;;;5109440;27;20056;-64
2023/09/07 03:26:25;;;;;;;6.25;3.88;;;;;;;;;;5109329;27;20039;-64
2023/09/07 03:28:52;;;;;;;5.53;4.03;;;;;;;;;;5108031;28;20048;-64
2023/09/07 03:31:19;;;;;;;5.32;4.05;;;;;;;;;;5101963;28;20083;-63
2023/09/07 03:33:47;;;;;;;6.05;4.40;;;;;;;;;;5094632;28;20474;-65
2023/09/07 03:36:14;;;;;;;6.65;3.90;;;;;;;;;;5108739;28;20067;-64
2023/09/07 03:38:42;;;;;;;5.70;4.20;;;;;;;;;;5105980;28;20086;-64
2023/09/07 03:41:11;;;;;;;5.72;4.22;;;;;;;;;;5102358;28;20078;-64
2023/09/07 03:43:38;;;;;;;8.65;4.60;;;;;;;;;;5101275;28;20056;-63
2023/09/07 03:46:05;;;;;;;5.40;3.95;;;;;;;;;;5102339;28;20525;-63
2023/09/07 03:48:33;;;;;;;5.78;4.20;;;;;;;;;;5081441;28;20055;-63
2023/09/07 03:51:00;;;;;;;6.38;4.35;;;;;;;;;;5102414;27;20039;-64
2023/09/07 03:53:27;;;;;;;6.40;4.40;;;;;;;;;;5109074;27;20044;-64
2023/09/07 03:55:54;;;;;;;5.70;4.13;;;;;;;;;;5107512;28;20054;-64
2023/09/07 03:58:23;;;;;;;5.72;4.35;;;;;;;;;;5104885;28;20117;-65
2023/09/07 04:00:51;;;;;;;8.10;4.25;;;;;;;;;;5083376;28;20050;-63
2023/09/07 04:03:18;;;;;;;6.10;4.18;;;;;;;;;;5102338;28;20046;-65
2023/09/07 04:05:45;;;;;;;6.57;4.28;;;;;;;;;;5109237;28;20054;-63
2023/09/07 04:08:12;;;;;;;5.90;4.07;;;;;;;;;;5108186;28;20051;-64
2023/09/07 04:10:40;;;;;;;5.05;4.18;;;;;;;;;;5101007;28;20055;-63
2023/09/07 04:13:07;;;;;;;6.18;4.38;;;;;;;;;;5088069;28;20048;-65
2023/09/07 04:15:36;;;;;;;13.82;4.50;;;;;;;;;;5085667;28;20162;-64
2023/09/07 04:18:03;;;;;;;6.55;4.30;;;;;;;;;;5097770;28;20048;-63
2023/09/07 04:20:30;;;;;;;5.50;3.88;;;;;;;;;;5101319;28;20440;-63
2023/09/07 04:22:57;;;;;;;8.23;4.18;;;;;;;;;;5106307;28;20133;-63
2023/09/07 04:25:25;;;;;;;5.28;3.63;;;;;;;;;;5098410;28;20044;-65
2023/09/07 04:27:53;;;;;;;5.78;4.10;;;;;;;;;;5102959;28;20046;-64
2023/09/07 04:30:23;;;;;;;5.28;3.85;;;;;;;;;;5097381;28;20609;-63
2023/09/07 04:32:52;;;;;;;6.53;4.35;;;;;;;;;;5085131;28;20062;-64
2023/09/07 04:35:19;;;;;;;8.13;4.82;;;;;;;;;;5096499;28;20043;-64
2023/09/07 04:37:46;;;;;;;5.47;4.18;;;;;;;;;;5102617;28;21219;-63
2023/09/07 04:40:13;;;;;;;5.70;4.15;;;;;;;;;;5101428;28;20066;-64
2023/09/07 04:42:41;;;;;;;7.72;4.30;;;;;;;;;;5104358;28;20051;-63
2023/09/07 04:45:08;;;;;;;6.78;4.03;;;;;;;;;;5106448;28;20052;-63
2023/09/07 04:47:36;;;;;;;6.18;4.18;;;;;;;;;;5097570;28;20095;-64
2023/09/07 04:50:06;;;;;;;5.38;3.90;;;;;;;;;;5104121;28;20075;-64
2023/09/07 04:52:34;;;;;;;6.88;4.55;;;;;;;;;;5081722;28;20052;-64
2023/09/07 04:55:01;;;;;;;6.80;4.65;;;;;;;;;;5107412;27;20051;-64
2023/09/07 04:57:29;;;;;;;5.05;3.85;;;;;;;;;;5107329;28;20048;-63
2023/09/07 04:59:56;;;;;;;5.15;4.28;;;;;;;;;;5106953;27;20055;-63
2023/09/07 05:02:23;;;;;;;5.00;3.75;;;;;;;;;;5102140;28;20071;-63
2023/09/07 05:04:51;;;;;;;6.88;4.43;;;;;;;;;;5100889;27;20138;-63
2023/09/07 05:07:19;;;;;;;4.32;3.50;;;;;;;;;;5108004;27;20048;-64
2023/09/07 05:09:47;;;;;;;6.13;4.10;;;;;;;;;;5105107;28;20040;-64
2023/09/07 05:12:18;;;;;;;6.03;4.40;;;;;;;;;;5104369;28;20079;-63
2023/09/07 05:14:45;;;;;;;6.03;4.68;;;;;;;;;;5105834;27;20047;-64
2023/09/07 05:17:12;;;;;;;7.43;4.13;;;;;;;;;;5109335;28;20062;-63
2023/09/07 05:19:40;;;;;;;6.55;4.13;;;;;;;;;;5112817;27;20096;-64
2023/09/07 05:22:07;;;;;;;8.48;4.20;;;;;;;;;;5105327;28;20486;-63
2023/09/07 05:24:36;;;;;;;7.00;4.10;;;;;;;;;;5109260;27;20050;-66
2023/09/07 05:27:03;;;;;;;5.20;3.88;;;;;;;;;;5110742;28;20044;-64
2023/09/07 05:29:30;;;;;;;7.43;3.95;;;;;;;;;;5099518;28;20128;-63
2023/09/07 05:31:57;;;;;;;5.63;3.90;;;;;;;;;;5106250;28;20510;-63
2023/09/07 05:34:25;;;;;;;6.63;4.13;;;;;;;;;;5101675;27;20047;-64
2023/09/07 05:36:52;;;;;;;5.75;3.97;;;;;;;;;;5109775;27;20039;-63
2023/09/07 05:39:19;;;;;;;5.15;4.05;;;;;;;;;;5109981;28;20463;-63
2023/09/07 05:41:48;;;;;;;10.15;4.00;;;;;;;;;;5096760;28;20051;-63
2023/09/07 05:44:15;;;;;;;6.57;4.15;;;;;;;;;;5099450;28;20074;-65
2023/09/07 05:46:42;;;;;;;7.00;4.70;;;;;;;;;;5083115;28;20059;-63
2023/09/07 05:49:09;;;;;;;5.93;4.00;;;;;;;;;;5099806;27;20044;-65
2023/09/07 05:51:36;;;;;;;7.03;4.20;;;;;;;;;;5102345;27;20044;-63
2023/09/07 05:54:04;;;;;;;6.45;4.40;;;;;;;;;;5086791;27;20047;-64
2023/09/07 05:56:33;;;;;;;6.53;4.32;;;;;;;;;;5101309;27;20052;-65
2023/09/07 05:59:01;;;;;;;6.07;4.40;;;;;;;;;;5085272;28;20140;-63
2023/09/07 06:01:29;;;;;;;5.72;4.55;;;;;;;;;;5112214;27;20494;-63
2023/09/07 06:03:56;;;;;;;6.05;4.50;;;;;;;;;;5088733;28;20429;-63
2023/09/07 06:06:23;;;;;;;6.95;4.55;;;;;;;;;;5096947;28;20059;-63
2023/09/07 06:08:51;;;;;;;7.47;3.78;;;;;;;;;;5098497;27;20061;-63
2023/09/07 06:11:18;;;;;;;6.18;4.20;;;;;;;;;;5087959;28;20104;-63
2023/09/07 06:13:46;;;;;;;5.47;4.00;;;;;;;;;;5103615;28;20399;-63
2023/09/07 06:16:14;;;;;;;6.30;4.35;;;;;;;;;;5101391;27;20479;-64
2023/09/07 06:18:42;;;;;;;6.55;4.57;;;;;;;;;;5097226;27;20043;-64
2023/09/07 06:21:09;;;;;;;7.88;4.45;;;;;;;;;;5115292;27;20513;-63
2023/09/07 06:23:36;;;;;;;6.28;4.63;;;;;;;;;;5106316;28;20051;-63
2023/09/07 06:26:03;;;;;;;6.00;4.10;;;;;;;;;;5105061;28;20513;-63
2023/09/07 06:28:31;;;;;;;8.88;4.22;;;;;;;;;;5093707;27;20097;-63
2023/09/07 06:30:58;;;;;;;7.15;4.30;;;;;;;;;;5105553;27;20475;-64
2023/09/07 06:33:27;;;;;;;5.72;4.28;;;;;;;;;;5112953;27;20710;-63
2023/09/07 06:35:54;;;;;;;5.68;4.32;;;;;;;;;;5108983;27;20135;-63
2023/09/07 06:38:21;;;;;;;6.75;4.43;;;;;;;;;;5105202;27;20048;-63
2023/09/07 06:40:49;;;;;;;7.43;4.30;;;;;;;;;;5103715;28;20051;-63
2023/09/07 06:43:17;;;;;;;6.45;4.40;;;;;;;;;;5086124;28;20377;-63
2023/09/07 06:45:44;;;;;;;6.97;4.15;;;;;;;;;;5104938;28;20050;-63
2023/09/07 06:48:12;;;;;;;6.18;3.95;;;;;;;;;;5109241;27;20483;-64
2023/09/07 06:50:41;;;;;;;5.72;3.92;;;;;;;;;;5102536;28;20508;-66
2023/09/07 06:53:08;;;;;;;5.63;4.28;;;;;;;;;;5100172;28;20046;-63
2023/09/07 06:55:35;;;;;;;11.05;4.57;;;;;;;;;;5106663;27;20383;-64
2023/09/07 06:58:03;;;;;;;6.43;4.75;;;;;;;;;;5111914;27;20039;-64
2023/09/07 07:00:30;;;;;;;6.40;4.93;;;;;;;;;;5108995;27;20456;-63
2023/09/07 07:02:58;;;;;;;6.45;4.72;;;;;;;;;;5101336;27;20051;-64
2023/09/07 07:05:28;;;;;;;5.53;4.40;;;;;;;;;;5108173;27;20126;-63
2023/09/07 07:07:56;;;;;;;6.30;4.63;;;;;;;;;;5110272;27;20083;-63
2023/09/07 07:10:24;;;;;;;8.70;4.57;;;;;;;;;;5102874;28;20055;-63
2023/09/07 07:12:51;;;;;;;8.77;4.65;;;;;;;;;;5107174;27;20044;-64
2023/09/07 07:15:18;;;;;;;5.20;4.22;;;;;;;;;;5094347;28;20114;-63
2023/09/07 07:17:46;;;;;;;5.10;4.10;;;;;;;;;;5104544;28;20039;-63
2023/09/07 07:20:13;;;;;;;8.48;3.75;;;;;;;;;;5091047;28;20410;-64
2023/09/07 07:22:40;;;;;;;5.75;3.80;;;;;;;;;;5108143;27;20044;-63
2023/09/07 07:25:10;;;;;;;5.70;4.00;;;;;;;;;;5099100;27;20125;-63
2023/09/07 07:27:38;;;;;;;5.35;3.88;;;;;;;;;;5098784;28;20058;-63
2023/09/07 07:30:06;;;;;;;11.73;4.15;;;;;;;;;;5100726;27;20051;-63
2023/09/07 07:32:33;;;;;;;8.38;4.35;;;;;;;;;;5103065;28;20051;-63
2023/09/07 07:35:00;;;;;;;6.10;4.32;;;;;;;;;;5101244;27;20048;-64
2023/09/07 07:37:28;;;;;;;5.97;4.25;;;;;;;;;;5102582;27;20056;-63
2023/09/07 07:39:55;;;;;;;8.68;4.32;;;;;;;;;;5104397;27;20044;-65
2023/09/07 07:42:24;;;;;;;10.40;4.95;;;;;;;;;;5106344;27;20040;-64
2023/09/07 07:44:51;;;;;;;7.97;4.10;;;;;;;;;;5105849;27;20054;-66
2023/09/07 07:47:18;;;;;;;5.65;4.10;;;;;;;;;;5107889;27;20047;-64
2023/09/07 07:49:46;;;;;;;5.55;3.65;;;;;;;;;;5085621;28;20067;-64
2023/09/07 07:52:13;;;;;;;5.28;3.95;;;;;;;;;;5103461;28;20039;-64
2023/09/07 07:54:40;;;;;;;5.25;3.80;;;;;;;;;;5106759;27;20047;-65
2023/09/07 07:57:07;;;;;;;9.45;3.53;;;;;;;;;;5099540;28;20521;-64
2023/09/07 07:59:36;;;;;;;6.15;3.58;;;;;;;;;;5108022;28;20044;-65
2023/09/07 08:02:05;;;;;;;5.82;3.13;;;;;;;;;;5104046;28;20113;-65
2023/09/07 08:04:34;;;;;;;6.78;3.40;;;;;;;;;;5090110;28;20136;-63
2023/09/07 08:07:03;;;;;;;6.45;3.70;;;;;;;;;;5100858;28;20477;-64
2023/09/07 08:09:30;;;;;;;4.90;3.10;;;;;;;;;;5106056;28;20051;-64
2023/09/07 08:11:58;;;;;;;5.28;3.20;;;;;;;;;;5105443;28;20066;-63
2023/09/07 08:14:25;;;;;;;4.47;3.20;;;;;;;;;;5104787;28;20040;-64
2023/09/07 08:16:54;;;;;;;6.72;3.22;;;;;;;;;;5097912;28;20521;-63
2023/09/07 08:19:21;;;;;;;4.28;2.60;;;;;;;;;;5082095;28;20047;-64
2023/09/07 08:21:48;;;;;;;5.32;3.17;;;;;;;;;;5081208;28;20062;-63
2023/09/07 08:24:16;;;;;;;5.13;3.15;;;;;;;;;;5105893;28;20044;-64
2023/09/07 08:26:43;;;;;;;4.07;2.88;;;;;;;;;;5101265;28;20048;-64
2023/09/07 08:29:10;;;;;;;4.07;2.80;;;;;;;;;;5108431;28;20046;-64
2023/09/07 08:31:38;;;;;;;4.45;3.00;;;;;;;;;;5084671;28;20064;-64
2023/09/07 08:34:09;;;;;;;5.78;3.10;;;;;;;;;;5090346;28;20044;-64
2023/09/07 08:36:36;;;;;;;3.78;2.78;;;;;;;;;;5092527;28;20048;-64
2023/09/07 08:39:07;;;;;;;4.50;3.00;;;;;;;;;;5090446;28;20495;-64
2023/09/07 08:41:41;;;;;;;4.38;3.10;;;;;;;;;;5088431;28;20052;-63
2023/09/07 08:44:09;;;;;;;6.78;2.65;;;;;;;;;;5089770;28;20071;-64
2023/09/07 08:46:37;;;;;;;7.05;2.88;;;;;;;;;;5080064;28;20141;-63
2023/09/07 08:49:05;;;;;;;3.55;2.85;;;;;;;;;;5084092;28;20049;-65
2023/09/07 08:51:34;;;;;;;4.10;2.67;;;;;;;;;;5086357;28;20469;-64
2023/09/07 08:54:03;;;;;;;11.85;2.75;;;;;;;;;;5082486;28;20043;-64
2023/09/07 08:56:30;;;;;;;3.17;2.50;;;;;;;;;;5084213;28;20075;-65
2023/09/07 08:58:57;;;;;;;4.47;2.90;;;;;;;;;;5089360;28;20056;-64
2023/09/07 09:01:25;;;;;;;3.83;2.47;;;;;;;;;;5081425;28;20040;-65
2023/09/07 09:03:52;;;;;;;4.28;2.50;;;;;;;;;;5090435;28;20092;-64
2023/09/07 09:06:20;;;;;;;5.07;2.58;;;;;;;;;;5098789;28;20041;-64
2023/09/07 09:08:50;;;;;;;4.97;2.60;;;;;;;;;;5090285;28;20495;-64
2023/09/07 09:11:17;;;;;;;3.55;2.42;;;;;;;;;;5088068;28;20056;-64
2023/09/07 09:13:45;;;;;;;4.85;2.72;;;;;;;;;;5092298;28;20127;-64
2023/09/07 09:16:12;;;;;;;7.55;2.70;;;;;;;;;;5080917;28;20051;-64
2023/09/07 09:18:40;;;;;;;4.53;2.75;;;;;;;;;;5087972;28;20044;-64
2023/09/07 09:21:07;;;;;;;3.53;2.00;;;;;;;;;;5084329;28;20049;-63
2023/09/07 09:23:35;;;;;;;5.38;2.42;;;;;;;;;;5092505;28;20044;-64
2023/09/07 09:26:05;;;;;;;3.17;2.35;;;;;;;;;;5088852;28;20044;-64
2023/09/07 09:28:32;;;;;;;4.93;2.90;;;;;;;;;;5094676;28;20093;-64
2023/09/07 09:31:00;;;;;;;4.20;2.70;;;;;;;;;;5090828;28;20080;-64
2023/09/07 09:33:27;;;;;;;3.60;2.40;;;;;;;;;;5092723;28;20270;-65
2023/09/07 09:35:56;;;;;;;3.97;2.33;;;;;;;;;;5098194;28;20048;-64
2023/09/07 09:38:23;;;;;;;4.70;2.70;;;;;;;;;;5084633;28;20152;-64
2023/09/07 09:40:51;;;;;;;3.75;2.63;;;;;;;;;;5104921;28;20044;-64
2023/09/07 09:43:21;;;;;;;3.75;2.50;;;;;;;;;;5104224;28;20071;-64
2023/09/07 09:45:50;;;;;;;3.13;2.25;;;;;;;;;;5083617;28;20456;-64
2023/09/07 09:48:18;;;;;;;5.00;2.35;;;;;;;;;;5107691;28;20044;-64
2023/09/07 09:50:46;;;;;;;4.28;2.47;;;;;;;;;;5106268;28;20048;-66
2023/09/07 09:53:15;;;;;;;5.53;2.67;;;;;;;;;;5093281;28;20495;-64
2023/09/07 09:55:43;;;;;;;7.25;2.08;;;;;;;;;;5107515;28;20211;-63
2023/09/07 09:58:10;;;;;;;4.78;2.28;;;;;;;;;;5098029;28;20048;-65
2023/09/07 10:00:39;;;;;;;4.53;2.40;;;;;;;;;;5107192;27;20062;-65
2023/09/07 10:03:11;;;;;;;4.57;2.28;;;;;;;;;;5105087;27;20109;-65
2023/09/07 10:05:38;;;;;;;4.28;2.00;;;;;;;;;;5085229;28;20135;-64
2023/09/07 10:08:09;;;;;;;4.45;2.30;;;;;;;;;;5080349;28;20048;-65
2023/09/07 10:10:37;;;;;;;3.92;2.50;;;;;;;;;;5100553;28;20047;-65
2023/09/07 10:13:05;;;;;;;3.13;2.40;;;;;;;;;;5114106;27;20052;-65
2023/09/07 10:15:33;;;;;;;5.38;2.30;;;;;;;;;;5113731;27;20043;-65
2023/09/07 10:18:08;;;;;;;3.00;2.20;;;;;;;;;;5111263;27;20122;-66
2023/09/07 10:20:52;;;;;;;2.92;2.45;;;;;;;;;;5087365;28;20406;-64
2023/09/07 10:23:19;;;;;;;3.47;2.20;;;;;;;;;;5103792;28;20486;-65
2023/09/07 10:25:51;;;;;;;3.30;2.50;;;;;;;;;;5102008;27;20044;-64
2023/09/07 10:28:22;;;;;;;3.78;2.40;;;;;;;;;;5083936;28;20112;-64
2023/09/07 10:30:59;;;;;;;2.88;2.03;;;;;;;;;;5099809;28;20400;-65
2023/09/07 10:33:28;;;;;;;3.85;2.35;;;;;;;;;;5105793;28;20051;-64
2023/09/07 10:35:56;;;;;;;4.32;2.60;;;;;;;;;;5100543;28;20048;-64
2023/09/07 10:38:24;;;;;;;3.08;2.08;;;;;;;;;;5104518;28;20518;-64
2023/09/07 10:40:57;;;;;;;3.13;2.25;;;;;;;;;;5104758;28;20071;-64
2023/09/07 10:43:24;;;;;;;6.28;2.42;;;;;;;;;;5107254;27;20130;-64
2023/09/07 10:45:52;;;;;;;2.40;1.92;;;;;;;;;;5102299;27;20181;-66
2023/09/07 10:48:19;;;;;;;2.95;2.03;;;;;;;;;;5098303;28;20052;-64
2023/09/07 10:50:48;;;;;;;2.95;2.35;;;;;;;;;;5101120;28;20457;-66
2023/09/07 10:53:16;;;;;;;3.63;2.40;;;;;;;;;;5105891;28;20127;-64
2023/09/07 10:55:44;;;;;;;3.22;2.45;;;;;;;;;;5090131;28;20056;-63
2023/09/07 10:58:11;;;;;;;2.90;2.30;;;;;;;;;;5109814;27;20097;-63
2023/09/07 11:00:39;;;;;;;3.33;2.30;;;;;;;;;;5107522;27;20411;-63
2023/09/07 11:03:10;;;;;;;2.13;1.92;;;;;;;;;;5109220;27;20047;-63
2023/09/07 11:05:38;;;;;;;4.60;2.00;;;;;;;;;;5101356;28;20036;-64
2023/09/07 11:08:08;;;;;;;5.45;2.15;;;;;;;;;;5107435;28;20048;-63
2023/09/07 11:10:36;;;;;;;4.50;2.15;;;;;;;;;;5102848;27;20044;-63
2023/09/07 11:13:04;;;;;;;3.65;2.00;;;;;;;;;;5104666;28;20048;-63
2023/09/07 11:15:33;;;;;;;2.90;2.25;;;;;;;;;;5105809;28;20055;-63
2023/09/07 11:18:01;;;;;;;3.90;2.10;;;;;;;;;;5104849;28;20441;-64
2023/09/07 11:20:28;;;;;;;3.85;2.00;;;;;;;;;;5104435;28;20100;-63
2023/09/07 11:22:55;;;;;;;3.15;2.20;;;;;;;;;;5099543;28;20047;-64
2023/09/07 11:25:24;;;;;;;3.97;2.08;;;;;;;;;;5111165;27;20040;-64
2023/09/07 11:27:52;;;;;;;6.40;2.25;;;;;;;;;;5100859;28;20510;-64
2023/09/07 11:30:21;;;;;;;3.67;2.15;;;;;;;;;;5093312;28;20040;-64
2023/09/07 11:32:48;;;;;;;3.42;2.10;;;;;;;;;;5105240;28;20055;-63
2023/09/07 11:35:15;;;;;;;4.20;2.17;;;;;;;;;;5098581;28;20040;-63
2023/09/07 11:37:43;;;;;;;3.80;2.40;;;;;;;;;;5107245;28;20051;-63
2023/09/07 11:40:12;;;;;;;3.33;2.50;;;;;;;;;;5093208;28;20078;-64
2023/09/07 11:42:40;;;;;;;3.78;2.20;;;;;;;;;;5100034;28;20052;-64
2023/09/07 11:45:09;;;;;;;5.97;2.53;;;;;;;;;;5107200;28;20043;-64
2023/09/07 11:47:37;;;;;;;3.38;2.17;;;;;;;;;;5101399;28;20052;-65
2023/09/07 11:50:05;;;;;;;3.28;2.00;;;;;;;;;;5106463;28;20384;-65
2023/09/07 11:52:32;;;;;;;3.38;2.33;;;;;;;;;;5104490;28;20062;-65
2023/09/07 11:55:00;;;;;;;2.60;2.20;;;;;;;;;;5107213;28;20058;-65
2023/09/07 11:57:27;;;;;;;3.30;2.55;;;;;;;;;;5110060;27;20052;-65
2023/09/07 11:59:55;;;;;;;3.38;2.25;;;;;;;;;;5116285;27;20076;-65
2023/09/07 12:02:23;;;;;;;3.08;2.50;;;;;;;;;;5082690;28;20043;-65
2023/09/07 12:04:50;;;;;;;3.28;2.40;;;;;;;;;;5103396;27;20044;-65
2023/09/07 12:07:17;;;;;;;3.20;2.00;;;;;;;;;;5101274;28;20055;-66
2023/09/07 12:09:44;;;;;;;2.85;2.30;;;;;;;;;;5104905;28;20399;-65
2023/09/07 12:12:12;;;;;;;3.25;2.35;;;;;;;;;;5102876;28;20040;-65
2023/09/07 12:14:39;;;;;;;4.57;2.38;;;;;;;;;;5106504;28;20402;-63
2023/09/07 12:17:07;;;;;;;3.55;2.30;;;;;;;;;;5085071;28;20055;-63
2023/09/07 12:19:35;;;;;;;2.60;2.20;;;;;;;;;;5105601;28;20048;-63
2023/09/07 12:22:03;;;;;;;4.85;2.60;;;;;;;;;;5087820;28;20066;-63
2023/09/07 12:24:30;;;;;;;3.00;2.50;;;;;;;;;;5102468;28;20139;-62
2023/09/07 12:26:57;;;;;;;3.67;2.83;;;;;;;;;;5102719;28;20052;-63
2023/09/07 12:29:24;;;;;;;3.70;2.60;;;;;;;;;;5103738;28;20047;-63
2023/09/07 12:31:52;;;;;;;3.60;2.50;;;;;;;;;;5079923;28;20052;-63
2023/09/07 12:34:20;;;;;;;4.22;2.58;;;;;;;;;;5105419;28;20048;-63
2023/09/07 12:36:49;;;;;;;3.42;2.70;;;;;;;;;;5107548;28;20495;-63
2023/09/07 12:39:17;;;;;;;3.28;2.65;;;;;;;;;;5105299;28;20044;-63
2023/09/07 12:41:44;;;;;;;3.00;2.58;;;;;;;;;;5098176;28;20476;-64
2023/09/07 12:44:12;;;;;;;3.20;2.30;;;;;;;;;;5102127;28;20394;-65
2023/09/07 12:46:40;;;;;;;6.88;2.63;;;;;;;;;;5106755;28;20566;-64
2023/09/07 12:49:07;;;;;;;8.43;2.75;;;;;;;;;;5104357;28;20126;-63
2023/09/07 12:51:36;;;;;;;3.30;2.70;;;;;;;;;;5096256;28;20531;-63
2023/09/07 12:54:03;;;;;;;2.72;2.53;;;;;;;;;;5105518;28;20455;-63
2023/09/07 12:56:31;;;;;;;7.60;2.90;;;;;;;;;;5101214;28;20520;-63
2023/09/07 12:58:59;;;;;;;3.15;2.50;;;;;;;;;;5105002;28;20043;-63
2023/09/07 13:01:26;;;;;;;4.00;2.88;;;;;;;;;;5108647;28;20070;-64
2023/09/07 13:03:54;;;;;;;5.05;2.83;;;;;;;;;;5084817;28;20208;-63
2023/09/07 13:06:21;;;;;;;4.28;2.70;;;;;;;;;;5084031;28;20048;-63
2023/09/07 13:08:49;;;;;;;3.00;2.50;;;;;;;;;;5103459;28;20647;-63
2023/09/07 13:11:18;;;;;;;2.97;2.58;;;;;;;;;;5099248;28;20047;-63
2023/09/07 13:13:45;;;;;;;3.03;2.50;;;;;;;;;;5100909;28;20147;-64
2023/09/07 13:16:13;;;;;;;3.92;2.70;;;;;;;;;;5108069;27;20387;-64
2023/09/07 13:18:40;;;;;;;3.78;2.95;;;;;;;;;;5111011;28;20067;-65
2023/09/07 13:21:07;;;;;;;4.38;2.80;;;;;;;;;;5111916;27;20509;-64
2023/09/07 13:23:34;;;;;;;4.15;2.92;;;;;;;;;;5110040;28;20047;-64
2023/09/07 13:26:03;;;;;;;4.43;2.78;;;;;;;;;;5110582;28;20047;-65
2023/09/07 13:28:30;;;;;;;3.75;2.92;;;;;;;;;;5109275;27;20054;-64
2023/09/07 13:30:58;;;;;;;3.72;2.60;;;;;;;;;;5110246;27;20063;-63
2023/09/07 13:33:25;;;;;;;3.67;2.83;;;;;;;;;;5106029;28;20040;-64
2023/09/07 13:35:52;;;;;;;4.65;2.88;;;;;;;;;;5107717;28;20078;-64
2023/09/07 13:38:19;;;;;;;6.30;2.78;;;;;;;;;;5108751;27;20035;-64
2023/09/07 13:40:47;;;;;;;5.72;2.92;;;;;;;;;;5105005;28;20051;-63
2023/09/07 13:43:15;;;;;;;6.82;2.50;;;;;;;;;;5104948;28;20104;-64
2023/09/07 13:45:44;;;;;;;3.05;2.75;;;;;;;;;;5106332;28;20055;-63
2023/09/07 13:48:11;;;;;;;3.92;3.25;;;;;;;;;;5108954;27;20047;-63
2023/09/07 13:50:38;;;;;;;3.53;2.80;;;;;;;;;;5110618;28;20078;-64
2023/09/07 13:53:05;;;;;;;3.38;2.67;;;;;;;;;;5106620;28;20048;-64
2023/09/07 13:55:33;;;;;;;3.75;2.60;;;;;;;;;;5094180;28;20158;-64
2023/09/07 13:58:01;;;;;;;2.97;2.67;;;;;;;;;;5116762;27;20134;-64
2023/09/07 14:00:29;;;;;;;3.75;2.63;;;;;;;;;;5106965;27;20189;-64
2023/09/07 14:02:56;;;;;;;2.92;2.45;;;;;;;;;;5110204;27;20184;-65
2023/09/07 14:05:24;;;;;;;3.78;2.70;;;;;;;;;;5108282;27;20055;-64
2023/09/07 14:07:51;;;;;;;4.75;3.05;;;;;;;;;;5095570;28;20056;-64
2023/09/07 14:10:18;;;;;;;2.78;2.58;;;;;;;;;;5113468;27;20044;-64
2023/09/07 14:12:48;;;;;;;3.75;2.80;;;;;;;;;;5098762;27;20437;-64
2023/09/07 14:15:15;;;;;;;3.00;2.70;;;;;;;;;;5106295;28;20044;-64
2023/09/07 14:17:44;;;;;;;3.50;2.75;;;;;;;;;;5102684;28;20052;-63
2023/09/07 14:20:11;;;;;;;3.28;2.65;;;;;;;;;;5103844;27;20043;-64
2023/09/07 14:22:39;;;;;;;3.85;3.03;;;;;;;;;;5105894;28;20502;-65
2023/09/07 14:25:07;;;;;;;4.18;3.13;;;;;;;;;;5110363;28;20058;-64
2023/09/07 14:27:34;;;;;;;7.28;2.70;;;;;;;;;;5105723;28;20150;-64
2023/09/07 14:30:02;;;;;;;4.13;2.83;;;;;;;;;;5100088;28;20043;-64
2023/09/07 14:32:29;;;;;;;3.28;2.60;;;;;;;;;;5101309;28;20055;-64
2023/09/07 14:34:58;;;;;;;3.47;2.90;;;;;;;;;;5109348;27;20052;-63
2023/09/07 14:37:25;;;;;;;3.13;2.78;;;;;;;;;;5105192;27;20435;-64
2023/09/07 14:39:57;;;;;;;4.47;2.90;;;;;;;;;;5105204;28;20043;-63
2023/09/07 14:42:24;;;;;;;2.90;2.60;;;;;;;;;;5099599;28;20043;-64
2023/09/07 14:44:53;;;;;;;2.50;2.30;;;;;;;;;;5096763;28;20391;-63
2023/09/07 14:47:24;;;;;;;3.13;2.75;;;;;;;;;;5103927;28;20063;-64